sensor_id;sensor_type;location;lat;lon;timestamp;pressure;altitude;pressure_sealevel;temperature;humidity
14041;BME280;7095;51.388;6.196;2023-04-08T00:01:28;112618.41;;;-145.32;100.00
14041;BME280;7095;51.388;6.196;2023-04-08T00:03:56;112618.41;;;-145.32;100.00
14041;BME280;7095;51.388;6.196;2023-04-08T00:06:25;112877.31;;;-145.32;100.00
14041;BME280;7095;51.388;6.196;2023-04-08T00:08:55;113136.22;;;-145.32;100.00
14041;BME280;7095;51.388;6.196;2023-04-08T00:11:24;113395.13;;;-145.32;100.00
14041;BME280;7095;51.388;6.196;2023-04-08T00:13:52;113654.06;;;-145.32;100.00
14041;BME280;7095;51.388;6.196;2023-04-08T00:16:21;113913.03;;;-145.32;100.00
14041;BME280;7095;51.388;6.196;2023-04-08T00:18:49;114172.03;;;-145.32;100.00
14041;BME280;7095;51.388;6.196;2023-04-08T00:21:18;114431.03;;;-145.32;100.00
14041;BME280;7095;51.388;6.196;2023-04-08T00:23:48;114431.03;;;-145.32;100.00
14041;BME280;7095;51.388;6.196;2023-04-08T00:26:18;114431.03;;;-145.32;100.00
14041;BME280;7095;51.388;6.196;2023-04-08T00:28:46;114431.03;;;-145.32;100.00
14041;BME280;7095;51.388;6.196;2023-04-08T00:31:16;114690.03;;;-145.32;100.00
14041;BME280;7095;51.388;6.196;2023-04-08T00:33:45;114690.03;;;-145.32;100.00
14041;BME280;7095;51.388;6.196;2023-04-08T00:36:14;114690.03;;;-145.32;100.00
14041;BME280;7095;51.388;6.196;2023-04-08T00:38:42;114690.03;;;-145.32;100.00
14041;BME280;7095;51.388;6.196;2023-04-08T00:41:11;114949.09;;;-145.32;100.00
14041;BME280;7095;51.388;6.196;2023-04-08T00:43:41;114949.09;;;-145.32;100.00
14041;BME280;7095;51.388;6.196;2023-04-08T00:46:09;114949.09;;;-145.32;100.00
14041;BME280;7095;51.388;6.196;2023-04-08T00:48:38;114690.03;;;-145.32;100.00
14041;BME280;7095;51.388;6.196;2023-04-08T00:51:07;114949.09;;;-145.32;100.00
14041;BME280;7095;51.388;6.196;2023-04-08T00:53:35;114949.09;;;-145.32;100.00
14041;BME280;7095;51.388;6.196;2023-04-08T00:56:04;114949.09;;;-145.32;100.00
14041;BME280;7095;51.388;6.196;2023-04-08T00:58:32;115208.13;;;-145.32;100.00
14041;BME280;7095;51.388;6.196;2023-04-08T01:01:11;115208.13;;;-145.32;100.00
14041;BME280;7095;51.388;6.196;2023-04-08T01:03:45;115208.13;;;-145.32;100.00
14041;BME280;7095;51.388;6.196;2023-04-08T01:06:21;115467.22;;;-145.32;100.00
14041;BME280;7095;51.388;6.196;2023-04-08T01:08:58;115467.22;;;-145.32;100.00
14041;BME280;7095;51.388;6.196;2023-04-08T01:11:29;115467.22;;;-145.32;100.00
14041;BME280;7095;51.388;6.196;2023-04-08T01:14:00;115467.22;;;-145.32;100.00
14041;BME280;7095;51.388;6.196;2023-04-08T01:16:33;115467.22;;;-145.32;100.00
14041;BME280;7095;51.388;6.196;2023-04-08T01:19:04;115467.22;;;-145.32;100.00
14041;BME280;7095;51.388;6.196;2023-04-08T01:21:36;115467.22;;;-145.32;100.00
14041;BME280;7095;51.388;6.196;2023-04-08T01:24:08;115467.22;;;-145.32;100.00
14041;BME280;7095;51.388;6.196;2023-04-08T01:26:40;115726.31;;;-145.32;100.00
14041;BME280;7095;51.388;6.196;2023-04-08T01:29:10;115726.31;;;-145.32;100.00
14041;BME280;7095;51.388;6.196;2023-04-08T01:31:40;115726.31;;;-145.32;100.00
14041;BME280;7095;51.388;6.196;2023-04-08T01:34:10;115726.31;;;-145.32;100.00
14041;BME280;7095;51.388;6.196;2023-04-08T01:36:43;115728.34;;;-145.32;100.00
14041;BME280;7095;51.388;6.196;2023-04-08T01:39:13;115728.34;;;-145.32;100.00
14041;BME280;7095;51.388;6.196;2023-04-08T01:41:47;115728.34;;;-145.32;100.00
14041;BME280;7095;51.388;6.196;2023-04-08T01:44:17;115728.34;;;-145.32;100.00
14041;BME280;7095;51.388;6.196;2023-04-08T01:46:48;115728.34;;;-145.32;100.00
14041;BME280;7095;51.388;6.196;2023-04-08T01:49:18;115728.34;;;-145.32;100.00
14041;BME280;7095;51.388;6.196;2023-04-08T01:51:47;115728.34;;;-145.32;100.00
14041;BME280;7095;51.388;6.196;2023-04-08T01:54:17;115728.34;;;-145.32;100.00
14041;BME280;7095;51.388;6.196;2023-04-08T01:56:48;115728.34;;;-145.32;100.00
14041;BME280;7095;51.388;6.196;2023-04-08T01:59:20;115728.34;;;-145.32;100.00
14041;BME280;7095;51.388;6.196;2023-04-08T02:01:51;115728.34;;;-145.32;100.00
14041;BME280;7095;51.388;6.196;2023-04-08T02:04:20;115728.34;;;-145.32;100.00
14041;BME280;7095;51.388;6.196;2023-04-08T02:06:49;115728.34;;;-145.32;100.00
14041;BME280;7095;51.388;6.196;2023-04-08T02:09:17;115728.34;;;-145.32;100.00
14041;BME280;7095;51.388;6.196;2023-04-08T02:11:47;115728.34;;;-145.32;100.00
14041;BME280;7095;51.388;6.196;2023-04-08T02:14:16;115728.34;;;-145.32;100.00
14041;BME280;7095;51.388;6.196;2023-04-08T02:16:49;115728.34;;;-145.32;100.00
14041;BME280;7095;51.388;6.196;2023-04-08T02:19:24;115728.34;;;-145.32;100.00
14041;BME280;7095;51.388;6.196;2023-04-08T02:21:58;115728.34;;;-145.32;100.00
14041;BME280;7095;51.388;6.196;2023-04-08T02:24:31;115728.34;;;-145.32;100.00
14041;BME280;7095;51.388;6.196;2023-04-08T02:27:03;115728.34;;;-145.32;100.00
14041;BME280;7095;51.388;6.196;2023-04-08T02:29:33;115728.34;;;-145.32;100.00
14041;BME280;7095;51.388;6.196;2023-04-08T02:32:04;115728.34;;;-145.32;100.00
14041;BME280;7095;51.388;6.196;2023-04-08T02:34:36;115728.34;;;-145.32;100.00
14041;BME280;7095;51.388;6.196;2023-04-08T02:37:07;115728.34;;;-145.32;100.00
14041;BME280;7095;51.388;6.196;2023-04-08T02:39:35;115728.34;;;-145.32;100.00
14041;BME280;7095;51.388;6.196;2023-04-08T02:42:05;115728.34;;;-145.32;100.00
14041;BME280;7095;51.388;6.196;2023-04-08T02:44:37;115728.34;;;-145.32;100.00
14041;BME280;7095;51.388;6.196;2023-04-08T02:47:05;115728.34;;;-145.32;100.00
14041;BME280;7095;51.388;6.196;2023-04-08T02:49:34;115728.34;;;-145.32;100.00
14041;BME280;7095;51.388;6.196;2023-04-08T02:52:02;115728.34;;;-145.32;100.00
14041;BME280;7095;51.388;6.196;2023-04-08T02:54:31;115728.34;;;-145.32;100.00
14041;BME280;7095;51.388;6.196;2023-04-08T02:57:00;115728.34;;;-145.32;100.00
14041;BME280;7095;51.388;6.196;2023-04-08T02:59:30;115728.34;;;-145.32;100.00
14041;BME280;7095;51.388;6.196;2023-04-08T03:01:59;115728.34;;;-145.32;100.00
14041;BME280;7095;51.388;6.196;2023-04-08T03:04:28;115728.34;;;-145.32;100.00
14041;BME280;7095;51.388;6.196;2023-04-08T03:06:56;115728.34;;;-145.32;100.00
14041;BME280;7095;51.388;6.196;2023-04-08T03:09:25;115728.34;;;-145.32;100.00
14041;BME280;7095;51.388;6.196;2023-04-08T03:11:53;115728.34;;;-145.32;100.00
14041;BME280;7095;51.388;6.196;2023-04-08T03:14:22;115728.34;;;-145.32;100.00
14041;BME280;7095;51.388;6.196;2023-04-08T03:16:52;115728.34;;;-145.32;100.00
14041;BME280;7095;51.388;6.196;2023-04-08T03:19:20;115728.34;;;-145.32;100.00
14041;BME280;7095;51.388;6.196;2023-04-08T03:21:49;115728.34;;;-145.32;100.00
14041;BME280;7095;51.388;6.196;2023-04-08T03:24:17;115728.34;;;-145.32;100.00
14041;BME280;7095;51.388;6.196;2023-04-08T03:26:46;115728.34;;;-145.32;100.00
14041;BME280;7095;51.388;6.196;2023-04-08T03:29:15;115728.34;;;-145.32;100.00
14041;BME280;7095;51.388;6.196;2023-04-08T03:31:44;115728.34;;;-145.32;100.00
14041;BME280;7095;51.388;6.196;2023-04-08T03:34:14;115728.34;;;-145.32;100.00
14041;BME280;7095;51.388;6.196;2023-04-08T03:36:43;115728.34;;;-145.32;100.00
14041;BME280;7095;51.388;6.196;2023-04-08T03:39:11;115728.34;;;-145.32;100.00
14041;BME280;7095;51.388;6.196;2023-04-08T03:41:40;115728.34;;;-145.32;100.00
14041;BME280;7095;51.388;6.196;2023-04-08T03:44:09;115728.34;;;-145.32;100.00
14041;BME280;7095;51.388;6.196;2023-04-08T03:46:37;115728.34;;;-145.32;100.00
14041;BME280;7095;51.388;6.196;2023-04-08T03:49:05;115728.34;;;-145.32;100.00
14041;BME280;7095;51.388;6.196;2023-04-08T03:51:35;115728.34;;;-145.32;100.00
14041;BME280;7095;51.388;6.196;2023-04-08T03:54:04;115728.34;;;-145.32;100.00
14041;BME280;7095;51.388;6.196;2023-04-08T03:56:34;115728.34;;;-145.32;100.00
14041;BME280;7095;51.388;6.196;2023-04-08T03:59:02;115728.34;;;-145.32;100.00
14041;BME280;7095;51.388;6.196;2023-04-08T04:01:31;115728.34;;;-145.32;100.00
14041;BME280;7095;51.388;6.196;2023-04-08T04:04:00;115728.34;;;-145.32;100.00
14041;BME280;7095;51.388;6.196;2023-04-08T04:06:28;115728.34;;;-145.32;100.00
14041;BME280;7095;51.388;6.196;2023-04-08T04:08:58;115728.34;;;-145.32;100.00
14041;BME280;7095;51.388;6.196;2023-04-08T04:11:27;115728.34;;;-145.32;100.00
14041;BME280;7095;51.388;6.196;2023-04-08T04:13:56;115728.34;;;-145.32;100.00
14041;BME280;7095;51.388;6.196;2023-04-08T04:16:24;115728.34;;;-145.32;100.00
14041;BME280;7095;51.388;6.196;2023-04-08T04:18:53;115728.34;;;-145.32;100.00
14041;BME280;7095;51.388;6.196;2023-04-08T04:21:21;115728.34;;;-145.32;100.00
14041;BME280;7095;51.388;6.196;2023-04-08T04:23:52;115728.34;;;-145.32;100.00
14041;BME280;7095;51.388;6.196;2023-04-08T04:26:22;115728.34;;;-145.32;100.00
14041;BME280;7095;51.388;6.196;2023-04-08T04:28:51;115728.34;;;-145.32;100.00
14041;BME280;7095;51.388;6.196;2023-04-08T04:31:21;115728.34;;;-145.32;100.00
14041;BME280;7095;51.388;6.196;2023-04-08T04:33:52;115728.34;;;-145.32;100.00
14041;BME280;7095;51.388;6.196;2023-04-08T04:36:21;115728.34;;;-145.32;100.00
14041;BME280;7095;51.388;6.196;2023-04-08T04:38:49;115728.34;;;-145.32;100.00
14041;BME280;7095;51.388;6.196;2023-04-08T04:41:18;115728.34;;;-145.32;100.00
14041;BME280;7095;51.388;6.196;2023-04-08T04:43:49;115728.34;;;-145.32;100.00
14041;BME280;7095;51.388;6.196;2023-04-08T04:46:17;115728.34;;;-145.32;100.00
14041;BME280;7095;51.388;6.196;2023-04-08T04:48:46;115728.34;;;-145.32;100.00
14041;BME280;7095;51.388;6.196;2023-04-08T04:51:15;115728.34;;;-145.32;100.00
14041;BME280;7095;51.388;6.196;2023-04-08T04:53:43;115728.34;;;-145.32;100.00
14041;BME280;7095;51.388;6.196;2023-04-08T04:56:12;115728.34;;;-145.32;100.00
14041;BME280;7095;51.388;6.196;2023-04-08T04:58:40;115728.34;;;-145.32;100.00
14041;BME280;7095;51.388;6.196;2023-04-08T05:01:10;115728.34;;;-145.32;100.00
14041;BME280;7095;51.388;6.196;2023-04-08T05:03:38;115728.34;;;-145.32;100.00
14041;BME280;7095;51.388;6.196;2023-04-08T05:06:07;115728.34;;;-145.32;100.00
14041;BME280;7095;51.388;6.196;2023-04-08T05:08:36;115728.34;;;-145.32;100.00
14041;BME280;7095;51.388;6.196;2023-04-08T05:11:08;115728.34;;;-145.32;100.00
14041;BME280;7095;51.388;6.196;2023-04-08T05:13:37;115728.34;;;-145.32;100.00
14041;BME280;7095;51.388;6.196;2023-04-08T05:16:06;115728.34;;;-145.32;100.00
14041;BME280;7095;51.388;6.196;2023-04-08T05:18:36;115728.34;;;-145.32;100.00
14041;BME280;7095;51.388;6.196;2023-04-08T05:21:04;115728.34;;;-145.32;100.00
14041;BME280;7095;51.388;6.196;2023-04-08T05:23:33;115728.34;;;-145.32;100.00
14041;BME280;7095;51.388;6.196;2023-04-08T05:26:02;115728.34;;;-145.32;100.00
14041;BME280;7095;51.388;6.196;2023-04-08T05:28:30;115728.34;;;-145.32;100.00
14041;BME280;7095;51.388;6.196;2023-04-08T05:30:59;115728.34;;;-145.32;100.00
14041;BME280;7095;51.388;6.196;2023-04-08T05:33:27;115728.34;;;-145.32;100.00
14041;BME280;7095;51.388;6.196;2023-04-08T05:35:58;115728.34;;;-145.32;100.00
14041;BME280;7095;51.388;6.196;2023-04-08T05:38:27;115728.34;;;-145.32;100.00
14041;BME280;7095;51.388;6.196;2023-04-08T05:40:55;115728.34;;;-145.32;100.00
14041;BME280;7095;51.388;6.196;2023-04-08T05:43:24;115728.34;;;-145.32;100.00
14041;BME280;7095;51.388;6.196;2023-04-08T05:45:52;115728.34;;;-145.32;100.00
14041;BME280;7095;51.388;6.196;2023-04-08T05:48:20;115728.34;;;-145.32;100.00
14041;BME280;7095;51.388;6.196;2023-04-08T05:50:49;115728.34;;;-145.32;100.00
14041;BME280;7095;51.388;6.196;2023-04-08T05:53:19;115728.34;;;-145.32;100.00
14041;BME280;7095;51.388;6.196;2023-04-08T05:55:47;115728.34;;;-145.32;100.00
14041;BME280;7095;51.388;6.196;2023-04-08T05:58:16;115728.34;;;-145.32;100.00
14041;BME280;7095;51.388;6.196;2023-04-08T06:00:44;115728.34;;;-145.32;100.00
14041;BME280;7095;51.388;6.196;2023-04-08T06:03:12;115728.34;;;-145.32;100.00
14041;BME280;7095;51.388;6.196;2023-04-08T06:05:45;115728.34;;;-145.32;100.00
14041;BME280;7095;51.388;6.196;2023-04-08T06:08:14;115728.34;;;-145.32;100.00
14041;BME280;7095;51.388;6.196;2023-04-08T06:10:49;115728.34;;;-145.32;100.00
14041;BME280;7095;51.388;6.196;2023-04-08T06:13:17;115728.34;;;-145.32;100.00
14041;BME280;7095;51.388;6.196;2023-04-08T06:15:47;115728.34;;;-145.32;100.00
14041;BME280;7095;51.388;6.196;2023-04-08T06:18:16;115728.34;;;-145.32;100.00
14041;BME280;7095;51.388;6.196;2023-04-08T06:20:44;115728.34;;;-145.32;100.00
14041;BME280;7095;51.388;6.196;2023-04-08T06:23:13;115728.34;;;-145.32;100.00
14041;BME280;7095;51.388;6.196;2023-04-08T06:25:41;115728.34;;;-145.32;100.00
14041;BME280;7095;51.388;6.196;2023-04-08T06:28:11;115728.34;;;-145.32;100.00
14041;BME280;7095;51.388;6.196;2023-04-08T06:30:40;115728.34;;;-145.32;100.00
14041;BME280;7095;51.388;6.196;2023-04-08T06:33:08;115728.34;;;-145.32;100.00
14041;BME280;7095;51.388;6.196;2023-04-08T06:35:37;115728.34;;;-145.32;100.00
14041;BME280;7095;51.388;6.196;2023-04-08T06:38:05;115728.34;;;-145.32;100.00
14041;BME280;7095;51.388;6.196;2023-04-08T06:40:33;115728.34;;;-145.32;100.00
14041;BME280;7095;51.388;6.196;2023-04-08T06:43:02;115728.34;;;-145.32;100.00
14041;BME280;7095;51.388;6.196;2023-04-08T06:45:39;115728.34;;;-145.32;100.00
14041;BME280;7095;51.388;6.196;2023-04-08T06:48:08;115728.34;;;-145.32;100.00
14041;BME280;7095;51.388;6.196;2023-04-08T06:50:38;115728.34;;;-145.32;100.00
14041;BME280;7095;51.388;6.196;2023-04-08T06:53:06;115728.34;;;-145.32;100.00
14041;BME280;7095;51.388;6.196;2023-04-08T06:55:35;115728.34;;;-145.32;100.00
14041;BME280;7095;51.388;6.196;2023-04-08T06:58:03;115728.34;;;-145.32;100.00
14041;BME280;7095;51.388;6.196;2023-04-08T07:00:32;115728.34;;;-145.32;100.00
14041;BME280;7095;51.388;6.196;2023-04-08T07:03:02;115728.34;;;-145.32;100.00
14041;BME280;7095;51.388;6.196;2023-04-08T07:05:31;115728.34;;;-145.32;100.00
14041;BME280;7095;51.388;6.196;2023-04-08T07:07:59;115728.34;;;-145.32;100.00
14041;BME280;7095;51.388;6.196;2023-04-08T07:10:28;115728.34;;;-145.32;100.00
14041;BME280;7095;51.388;6.196;2023-04-08T07:12:56;115728.34;;;-145.32;100.00
14041;BME280;7095;51.388;6.196;2023-04-08T07:15:25;115728.34;;;-145.32;100.00
14041;BME280;7095;51.388;6.196;2023-04-08T07:17:53;115728.34;;;-145.32;100.00
14041;BME280;7095;51.388;6.196;2023-04-08T07:20:25;115728.34;;;-145.32;100.00
14041;BME280;7095;51.388;6.196;2023-04-08T07:22:56;115728.34;;;-145.32;100.00
14041;BME280;7095;51.388;6.196;2023-04-08T07:25:25;115728.34;;;-145.32;100.00
14041;BME280;7095;51.388;6.196;2023-04-08T07:27:53;115728.34;;;-145.32;100.00
14041;BME280;7095;51.388;6.196;2023-04-08T07:30:22;115728.34;;;-145.32;100.00
14041;BME280;7095;51.388;6.196;2023-04-08T07:32:51;115728.34;;;-145.32;100.00
14041;BME280;7095;51.388;6.196;2023-04-08T07:35:24;115728.34;;;-145.32;100.00
14041;BME280;7095;51.388;6.196;2023-04-08T07:37:54;115728.34;;;-145.32;100.00
14041;BME280;7095;51.388;6.196;2023-04-08T07:40:23;115728.34;;;-145.32;100.00
14041;BME280;7095;51.388;6.196;2023-04-08T07:42:52;115728.34;;;-145.32;100.00
14041;BME280;7095;51.388;6.196;2023-04-08T07:45:21;115728.34;;;-145.32;100.00
14041;BME280;7095;51.388;6.196;2023-04-08T07:47:50;115728.34;;;-145.32;100.00
14041;BME280;7095;51.388;6.196;2023-04-08T07:50:18;115728.34;;;-145.32;100.00
14041;BME280;7095;51.388;6.196;2023-04-08T07:52:48;115728.34;;;-145.32;100.00
14041;BME280;7095;51.388;6.196;2023-04-08T07:55:16;115728.34;;;-145.32;100.00
14041;BME280;7095;51.388;6.196;2023-04-08T07:57:45;115728.34;;;-145.32;100.00
14041;BME280;7095;51.388;6.196;2023-04-08T08:00:14;115728.34;;;-145.32;100.00
14041;BME280;7095;51.388;6.196;2023-04-08T08:02:47;115728.34;;;-145.32;100.00
14041;BME280;7095;51.388;6.196;2023-04-08T08:05:16;115728.34;;;-145.32;100.00
14041;BME280;7095;51.388;6.196;2023-04-08T08:07:45;115728.34;;;-145.32;100.00
14041;BME280;7095;51.388;6.196;2023-04-08T08:10:15;115728.34;;;-145.32;100.00
14041;BME280;7095;51.388;6.196;2023-04-08T08:12:44;115728.34;;;-145.32;100.00
14041;BME280;7095;51.388;6.196;2023-04-08T08:15:13;115726.31;;;-145.32;100.00
14041;BME280;7095;51.388;6.196;2023-04-08T08:17:41;115467.22;;;-145.32;100.00
14041;BME280;7095;51.388;6.196;2023-04-08T08:20:10;115467.22;;;-145.32;100.00
14041;BME280;7095;51.388;6.196;2023-04-08T08:22:39;115467.22;;;-145.32;100.00
14041;BME280;7095;51.388;6.196;2023-04-08T08:25:24;115726.31;;;-145.32;100.00
14041;BME280;7095;51.388;6.196;2023-04-08T08:27:52;115728.34;;;-145.32;100.00
14041;BME280;7095;51.388;6.196;2023-04-08T08:30:21;115728.34;;;-145.32;100.00
14041;BME280;7095;51.388;6.196;2023-04-08T08:32:51;115726.31;;;-145.32;100.00
14041;BME280;7095;51.388;6.196;2023-04-08T08:35:22;115726.31;;;-145.32;100.00
14041;BME280;7095;51.388;6.196;2023-04-08T08:37:51;114949.09;;;-145.32;100.00
14041;BME280;7095;51.388;6.196;2023-04-08T08:40:19;115467.22;;;-145.32;100.00
14041;BME280;7095;51.388;6.196;2023-04-08T08:42:51;115467.22;;;-145.32;100.00
14041;BME280;7095;51.388;6.196;2023-04-08T08:45:20;115467.22;;;-145.32;100.00
14041;BME280;7095;51.388;6.196;2023-04-08T08:47:48;115208.13;;;-145.32;100.00
14041;BME280;7095;51.388;6.196;2023-04-08T08:50:17;115467.22;;;-145.32;100.00
14041;BME280;7095;51.388;6.196;2023-04-08T08:52:48;115726.31;;;-145.32;100.00
14041;BME280;7095;51.388;6.196;2023-04-08T08:55:18;115208.13;;;-145.32;100.00
14041;BME280;7095;51.388;6.196;2023-04-08T08:58:08;114949.09;;;-145.32;100.00
14041;BME280;7095;51.388;6.196;2023-04-08T09:00:39;114690.03;;;-145.32;100.00
14041;BME280;7095;51.388;6.196;2023-04-08T09:03:16;114949.09;;;-145.32;100.00
14041;BME280;7095;51.388;6.196;2023-04-08T09:05:50;114949.09;;;-145.32;100.00
14041;BME280;7095;51.388;6.196;2023-04-08T09:08:23;115208.13;;;-145.32;100.00
14041;BME280;7095;51.388;6.196;2023-04-08T09:10:53;115726.31;;;-145.32;100.00
14041;BME280;7095;51.388;6.196;2023-04-08T09:13:23;114172.03;;;-145.32;100.00
14041;BME280;7095;51.388;6.196;2023-04-08T09:16:02;114431.03;;;-145.32;100.00
14041;BME280;7095;51.388;6.196;2023-04-08T09:18:32;114172.03;;;-145.32;100.00
14041;BME280;7095;51.388;6.196;2023-04-08T09:21:02;114431.03;;;-145.32;100.00
14041;BME280;7095;51.388;6.196;2023-04-08T09:23:38;114949.09;;;-145.32;100.00
14041;BME280;7095;51.388;6.196;2023-04-08T09:26:08;114431.03;;;-145.32;100.00
14041;BME280;7095;51.388;6.196;2023-04-08T09:28:40;114431.03;;;-145.32;100.00
14041;BME280;7095;51.388;6.196;2023-04-08T09:31:19;113395.13;;;-145.32;100.00
14041;BME280;7095;51.388;6.196;2023-04-08T09:33:48;114172.03;;;-145.32;100.00
14041;BME280;7095;51.388;6.196;2023-04-08T09:36:18;114949.09;;;-145.32;100.00
14041;BME280;7095;51.388;6.196;2023-04-08T09:38:47;114690.03;;;-145.32;100.00
14041;BME280;7095;51.388;6.196;2023-04-08T09:41:16;113913.03;;;-145.32;100.00
14041;BME280;7095;51.388;6.196;2023-04-08T09:43:49;112877.31;;;-145.32;100.00
14041;BME280;7095;51.388;6.196;2023-04-08T09:46:24;111324.28;;;-145.32;100.00
14041;BME280;7095;51.388;6.196;2023-04-08T09:49:01;112359.53;;;-145.32;100.00
14041;BME280;7095;51.388;6.196;2023-04-08T09:51:39;111065.50;;;-145.32;100.00
14041;BME280;7095;51.388;6.196;2023-04-08T09:54:12;108478.84;;;-145.32;100.00
14041;BME280;7095;51.388;6.196;2023-04-08T09:56:53;107961.72;;;-145.32;100.00
14041;BME280;7095;51.388;6.196;2023-04-08T09:59:26;110289.28;;;-145.32;100.00
14041;BME280;7095;51.388;6.196;2023-04-08T10:02:06;106152.47;;;-145.32;100.00
14041;BME280;7095;51.388;6.196;2023-04-08T10:04:38;104860.72;;;-145.32;100.00
14041;BME280;7095;51.388;6.196;2023-04-08T10:07:08;104602.44;;;-145.32;100.00
14041;BME280;7095;51.388;6.196;2023-04-08T10:09:37;104085.91;;;-145.32;100.00
14041;BME280;7095;51.388;6.196;2023-04-08T10:12:09;107186.22;;;-145.32;100.00
14041;BME280;7095;51.388;6.196;2023-04-08T10:14:39;102278.66;;;-145.32;100.00
14041;BME280;7095;51.388;6.196;2023-04-08T10:17:24;101246.34;;;-145.32;100.00
14041;BME280;7095;51.388;6.196;2023-04-08T10:19:53;103827.66;;;-145.32;100.00
14041;BME280;7095;51.388;6.196;2023-04-08T10:22:46;98924.81;;;-145.32;100.00
14041;BME280;7095;51.388;6.196;2023-04-08T10:25:34;103053.06;;;-145.32;100.00
14041;BME280;7095;51.388;6.196;2023-04-08T10:28:23;95574.19;;;-145.32;100.00
14041;BME280;7095;51.388;6.196;2023-04-08T10:30:55;96089.47;;;-145.32;100.00
14041;BME280;7095;51.388;6.196;2023-04-08T10:33:31;99440.56;;;-145.32;100.00
14041;BME280;7095;51.388;6.196;2023-04-08T10:36:08;103569.44;;;-145.32;100.00
14041;BME280;7095;51.388;6.196;2023-04-08T10:38:37;96604.81;;;-145.32;100.00
14041;BME280;7095;51.388;6.196;2023-04-08T10:41:09;97893.50;;;-145.32;100.00
14041;BME280;7095;51.388;6.196;2023-04-08T10:43:38;92999.00;;;-145.32;100.00
14041;BME280;7095;51.388;6.196;2023-04-08T10:46:09;95059.00;;;-145.32;100.00
14041;BME280;7095;51.388;6.196;2023-04-08T10:48:38;85284.91;;;-145.32;100.00
14041;BME280;7095;51.388;6.196;2023-04-08T10:51:07;85028.06;;;-145.32;100.00
14041;BME280;7095;51.388;6.196;2023-04-08T10:53:37;86312.47;;;-145.32;100.00
14041;BME280;7095;51.388;6.196;2023-04-08T10:56:07;84000.91;;;-145.32;100.00
14041;BME280;7095;51.388;6.196;2023-04-08T10:58:47;86826.34;;;-145.32;100.00
14041;BME280;7095;51.388;6.196;2023-04-08T11:01:17;82974.03;;;-145.32;100.00
14041;BME280;7095;51.388;6.196;2023-04-08T11:03:46;78869.66;;;-145.32;100.00
14041;BME280;7095;51.388;6.196;2023-04-08T11:06:15;76563.09;;;-145.32;100.00
14041;BME280;7095;51.388;6.196;2023-04-08T11:08:46;78613.28;;;-145.32;100.00
14041;BME280;7095;51.388;6.196;2023-04-08T11:11:14;75026.22;;;-145.32;100.00
14041;BME280;7095;51.388;6.196;2023-04-08T11:13:44;70327.91;;;-145.32;100.00
14041;BME280;7095;51.388;6.196;2023-04-08T11:16:21;73746.06;;;-145.32;100.00
14041;BME280;7095;51.388;6.196;2023-04-08T11:18:50;59442.66;;;-145.32;100.00
14041;BME280;7095;51.388;6.196;2023-04-08T11:21:19;58028.94;;;-145.32;100.00
14041;BME280;7095;51.388;6.196;2023-04-08T11:23:48;58775.53;;;-145.32;100.00
14041;BME280;7095;51.388;6.196;2023-04-08T11:26:20;59520.31;;;-145.32;100.00
14041;BME280;7095;51.388;6.196;2023-04-08T11:28:49;56972.03;;;-145.32;100.00
14041;BME280;7095;51.388;6.196;2023-04-08T11:31:20;56008.97;;;-145.32;100.00
14041;BME280;7095;51.388;6.196;2023-04-08T11:33:52;56615.81;;;-145.32;100.00
14041;BME280;7095;51.388;6.196;2023-04-08T11:36:22;56008.97;;;-145.32;100.00
14041;BME280;7095;51.388;6.196;2023-04-08T11:38:53;55465.88;;;-145.32;100.00
14041;BME280;7095;51.388;6.196;2023-04-08T11:41:21;54902.97;;;-145.32;100.00
14041;BME280;7095;51.388;6.196;2023-04-08T11:43:51;54966.59;;;-145.32;100.00
14041;BME280;7095;51.388;6.196;2023-04-08T11:46:22;54765.72;;;-145.32;100.00
14041;BME280;7095;51.388;6.196;2023-04-08T11:49:02;54664.31;;;-145.32;100.00
14041;BME280;7095;51.388;6.196;2023-04-08T11:51:32;54580.78;;;-145.32;100.00
14041;BME280;7095;51.388;6.196;2023-04-08T11:54:04;54366.00;;;-145.32;100.00
14041;BME280;7095;51.388;6.196;2023-04-08T11:56:44;54346.13;;;-145.32;100.00
14041;BME280;7095;51.388;6.196;2023-04-08T11:59:13;54135.34;;;-145.32;100.00
14041;BME280;7095;51.388;6.196;2023-04-08T12:01:44;54113.47;;;-145.32;100.00
14041;BME280;7095;51.388;6.196;2023-04-08T12:04:16;54131.38;;;-145.32;100.00
14041;BME280;7095;51.388;6.196;2023-04-08T12:06:45;54107.50;;;-145.32;100.00
14041;BME280;7095;51.388;6.196;2023-04-08T12:09:14;54159.19;;;-145.32;100.00
14041;BME280;7095;51.388;6.196;2023-04-08T12:11:43;54063.75;;;-145.32;100.00
14041;BME280;7095;51.388;6.196;2023-04-08T12:14:11;54093.59;;;-145.32;100.00
14041;BME280;7095;51.388;6.196;2023-04-08T12:16:40;54012.06;;;-145.32;100.00
14041;BME280;7095;51.388;6.196;2023-04-08T12:19:10;53956.38;;;-145.32;100.00
14041;BME280;7095;51.388;6.196;2023-04-08T12:21:38;53984.22;;;-145.32;100.00
14041;BME280;7095;51.388;6.196;2023-04-08T12:24:07;53906.69;;;-145.32;100.00
14041;BME280;7095;51.388;6.196;2023-04-08T12:26:35;53876.84;;;-145.32;100.00
14041;BME280;7095;51.388;6.196;2023-04-08T12:29:04;53866.91;;;-145.32;100.00
14041;BME280;7095;51.388;6.196;2023-04-08T12:31:35;53874.88;;;-145.32;100.00
14041;BME280;7095;51.388;6.196;2023-04-08T12:34:04;53827.16;;;-145.32;100.00
14041;BME280;7095;51.388;6.196;2023-04-08T12:36:34;53829.13;;;-145.32;100.00
14041;BME280;7095;51.388;6.196;2023-04-08T12:39:06;53817.22;;;-145.32;100.00
14041;BME280;7095;51.388;6.196;2023-04-08T12:41:35;53809.25;;;-145.32;100.00
14041;BME280;7095;51.388;6.196;2023-04-08T12:44:03;53793.34;;;-145.32;100.00
14041;BME280;7095;51.388;6.196;2023-04-08T12:46:32;53789.38;;;-145.32;100.00
14041;BME280;7095;51.388;6.196;2023-04-08T12:49:01;53755.56;;;-145.32;100.00